Terminal Aerodrome Forecast
Issued by NWS

Home | Current Version | Previous Version | Text Only | Print | Product List | Glossary On
Versions: 1 2 3 4 5 6 7 8 9 10 11 12 13 14 15 16 17
000
FTUS44 KLZK 221700
TAFBPK
TAF
KBPK 221739Z 2218/2318 15009KT 6SM BR VCSH BKN003 OVC025
      WS020/22040KT
      TEMPO 2218/2221 2SM -RA BR OVC003
     FM222100 22009G18KT 6SM BR VCSH SCT005 OVC015 WS020/22040KT
      TEMPO 2221/2224 4SM -RA BR OVC005
     FM230000 27009G15KT P6SM VCSH BKN015 OVC040
     FM230600 27008G15KT P6SM VCSH SCT025 BKN050 BKN250=

USA.gov is the U.S. government's official web portal to all federal, state and local government web resources and services.